Time;durP1;ratioP1;P1;durP2;ratioP2;P2;SDS_P1;SDS_P2;PMS_P1;PMS_P2;Temp;Humidity;BMP_temperature;BMP_pressure;BME280_temperature;BME280_humidity;BME280_pressure;Samples;Min_cycle;Max_cycle;Signal;HPM_P1;HPM_P2
2022/07/29 00:01:06;;;;;;;4.25;2.13;;;;;;;;;;5054375;28;20056;-74
2022/07/29 00:03:32;;;;;;;3.58;2.15;;;;;;;;;;5054587;28;20461;-74
2022/07/29 00:05:57;;;;;;;4.32;2.00;;;;;;;;;;5054680;28;20036;-74
2022/07/29 00:08:23;;;;;;;3.70;1.85;;;;;;;;;;5054092;28;20102;-75
2022/07/29 00:10:48;;;;;;;3.80;2.00;;;;;;;;;;5053494;28;20029;-74
2022/07/29 00:13:14;;;;;;;2.63;2.13;;;;;;;;;;5054524;28;20017;-75
2022/07/29 00:15:39;;;;;;;3.15;2.08;;;;;;;;;;5054451;28;20452;-74
2022/07/29 00:18:05;;;;;;;2.25;1.80;;;;;;;;;;5054537;28;20074;-74
2022/07/29 00:20:30;;;;;;;2.83;1.63;;;;;;;;;;5052578;28;20036;-74
2022/07/29 00:22:55;;;;;;;2.35;1.98;;;;;;;;;;5053819;28;20119;-76
2022/07/29 00:25:21;;;;;;;2.13;1.88;;;;;;;;;;5054001;28;20060;-76
2022/07/29 00:27:46;;;;;;;4.78;2.10;;;;;;;;;;5054334;28;20465;-76
2022/07/29 00:30:12;;;;;;;3.17;2.10;;;;;;;;;;5054261;28;20029;-76
2022/07/29 00:32:37;;;;;;;4.50;1.70;;;;;;;;;;5054363;28;20032;-76
2022/07/29 00:37:47;;;;;;;3.05;1.88;;;;;;;;;;5053773;28;20036;-76
2022/07/29 00:40:13;;;;;;;2.45;1.88;;;;;;;;;;5052298;28;20028;-76
2022/07/29 00:42:45;;;;;;;1.60;1.50;;;;;;;;;;5054202;28;20118;-75
2022/07/29 00:45:11;;;;;;;2.90;1.85;;;;;;;;;;5054008;28;20032;-75
2022/07/29 00:47:37;;;;;;;2.90;1.40;;;;;;;;;;5053813;28;20372;-75
2022/07/29 00:50:03;;;;;;;3.25;1.90;;;;;;;;;;5052217;28;20021;-75
2022/07/29 00:52:28;;;;;;;3.45;1.75;;;;;;;;;;5053828;28;20106;-75
2022/07/29 00:54:54;;;;;;;1.92;1.60;;;;;;;;;;5053162;28;20112;-75
2022/07/29 00:57:19;;;;;;;2.83;1.80;;;;;;;;;;5052703;28;20472;-75
2022/07/29 00:59:45;;;;;;;1.52;1.42;;;;;;;;;;5052619;28;20405;-75
2022/07/29 01:02:10;;;;;;;1.70;1.52;;;;;;;;;;5052205;28;20014;-75
2022/07/29 01:04:36;;;;;;;2.65;1.65;;;;;;;;;;5053897;28;20086;-75
2022/07/29 01:07:02;;;;;;;2.90;1.73;;;;;;;;;;5052849;28;20028;-75
2022/07/29 01:09:27;;;;;;;3.53;1.73;;;;;;;;;;5053307;28;20033;-75
2022/07/29 01:11:53;;;;;;;3.63;1.63;;;;;;;;;;5052196;28;20051;-75
2022/07/29 01:14:20;;;;;;;2.08;1.40;;;;;;;;;;5053339;28;20021;-75
2022/07/29 01:16:51;;;;;;;1.63;1.52;;;;;;;;;;5053551;28;20021;-74
2022/07/29 01:19:36;;;;;;;1.85;1.40;;;;;;;;;;5053241;28;20029;-75
2022/07/29 01:22:12;;;;;;;1.92;1.50;;;;;;;;;;5052655;28;20480;-75
2022/07/29 01:24:57;;;;;;;2.22;1.50;;;;;;;;;;5053916;28;20074;-75
2022/07/29 01:27:39;;;;;;;2.03;1.58;;;;;;;;;;5052259;28;20457;-75
2022/07/29 01:30:05;;;;;;;1.50;1.33;;;;;;;;;;5051927;28;20067;-75
2022/07/29 01:32:32;;;;;;;3.45;1.60;;;;;;;;;;5053803;28;20530;-74
2022/07/29 01:35:05;;;;;;;3.85;1.45;;;;;;;;;;5053630;28;20114;-75
2022/07/29 01:37:43;;;;;;;3.25;1.65;;;;;;;;;;5053176;28;20108;-75
2022/07/29 01:40:30;;;;;;;1.77;1.30;;;;;;;;;;5053216;28;20487;-75
2022/07/29 01:42:57;;;;;;;2.25;1.60;;;;;;;;;;5053560;28;20036;-76
2022/07/29 01:45:27;;;;;;;3.65;1.48;;;;;;;;;;5053200;28;20388;-76
2022/07/29 01:47:52;;;;;;;3.83;1.40;;;;;;;;;;5051857;28;20469;-75
2022/07/29 01:50:19;;;;;;;1.40;1.30;;;;;;;;;;5053188;28;20022;-75
2022/07/29 01:52:59;;;;;;;1.90;1.30;;;;;;;;;;5052709;28;20576;-75
2022/07/29 01:55:26;;;;;;;1.58;1.33;;;;;;;;;;5052995;28;20025;-74
2022/07/29 01:57:52;;;;;;;1.27;1.17;;;;;;;;;;5053235;28;20053;-74
2022/07/29 02:00:18;;;;;;;1.67;1.30;;;;;;;;;;5053130;28;20142;-74
2022/07/29 02:02:45;;;;;;;1.30;1.20;;;;;;;;;;5052792;28;20024;-74
2022/07/29 02:05:12;;;;;;;2.20;1.15;;;;;;;;;;5053104;28;20021;-74
2022/07/29 02:07:39;;;;;;;1.30;1.20;;;;;;;;;;5055991;28;20023;-75
2022/07/29 02:10:06;;;;;;;1.85;1.20;;;;;;;;;;5055542;28;20032;-75
2022/07/29 02:12:32;;;;;;;2.47;1.40;;;;;;;;;;5056355;28;20111;-75
2022/07/29 02:14:59;;;;;;;1.58;1.48;;;;;;;;;;5056553;28;20116;-75
2022/07/29 02:17:27;;;;;;;1.83;1.52;;;;;;;;;;5056223;28;20032;-75
2022/07/29 02:19:55;;;;;;;2.80;1.35;;;;;;;;;;5054903;28;20104;-75
2022/07/29 02:22:21;;;;;;;1.50;1.40;;;;;;;;;;5056042;28;20020;-75
2022/07/29 02:24:48;;;;;;;3.13;1.35;;;;;;;;;;5056092;28;20029;-75
2022/07/29 02:27:14;;;;;;;1.88;1.25;;;;;;;;;;5056670;28;20023;-75
2022/07/29 02:29:40;;;;;;;1.42;1.33;;;;;;;;;;5056531;28;20033;-75
2022/07/29 02:32:07;;;;;;;1.60;1.40;;;;;;;;;;5055923;28;20056;-75
2022/07/29 02:34:33;;;;;;;2.13;1.25;;;;;;;;;;5056110;28;20056;-75
2022/07/29 02:36:59;;;;;;;3.92;1.60;;;;;;;;;;5056091;28;20017;-75
2022/07/29 02:39:26;;;;;;;1.70;1.00;;;;;;;;;;5056077;28;20036;-75
2022/07/29 02:41:54;;;;;;;3.40;1.45;;;;;;;;;;5054580;28;20387;-75
2022/07/29 02:44:23;;;;;;;1.58;1.15;;;;;;;;;;5054811;28;20116;-75
2022/07/29 02:46:58;;;;;;;1.75;1.20;;;;;;;;;;5056069;28;20016;-75
2022/07/29 02:49:23;;;;;;;1.42;1.33;;;;;;;;;;5055883;28;20025;-75
2022/07/29 02:51:57;;;;;;;2.40;1.10;;;;;;;;;;5055492;28;20513;-74
2022/07/29 02:54:30;;;;;;;3.38;1.60;;;;;;;;;;5055758;28;20267;-75
2022/07/29 02:56:58;;;;;;;3.78;1.60;;;;;;;;;;5055915;28;20465;-74
2022/07/29 02:59:26;;;;;;;2.55;1.38;;;;;;;;;;5055637;28;20105;-74
2022/07/29 03:01:52;;;;;;;2.13;1.60;;;;;;;;;;5054102;28;20480;-75
2022/07/29 03:04:19;;;;;;;1.70;1.27;;;;;;;;;;5055260;28;20029;-74
2022/07/29 03:06:45;;;;;;;2.50;1.33;;;;;;;;;;5054152;28;20067;-74
2022/07/29 03:09:13;;;;;;;1.23;1.13;;;;;;;;;;5054643;28;20100;-73
2022/07/29 03:11:40;;;;;;;3.95;1.30;;;;;;;;;;5055429;28;20032;-75
2022/07/29 03:14:05;;;;;;;1.77;1.30;;;;;;;;;;5055148;28;20108;-74
2022/07/29 03:16:31;;;;;;;3.25;1.20;;;;;;;;;;5055650;28;20111;-74
2022/07/29 03:18:57;;;;;;;2.35;1.30;;;;;;;;;;5055589;28;20452;-74
2022/07/29 03:21:22;;;;;;;2.45;1.00;;;;;;;;;;5055202;28;20086;-75
2022/07/29 03:23:47;;;;;;;1.88;1.20;;;;;;;;;;5055386;28;20025;-75
2022/07/29 03:26:13;;;;;;;2.08;1.30;;;;;;;;;;5055154;28;20028;-75
2022/07/29 03:28:38;;;;;;;2.67;1.15;;;;;;;;;;5054884;28;20163;-75
2022/07/29 03:31:04;;;;;;;1.25;1.15;;;;;;;;;;5054862;28;20082;-75
2022/07/29 03:33:30;;;;;;;2.17;1.30;;;;;;;;;;5054569;28;20498;-75
2022/07/29 03:35:56;;;;;;;1.55;1.17;;;;;;;;;;5054609;28;20031;-75
2022/07/29 03:38:23;;;;;;;2.15;1.10;;;;;;;;;;5054441;28;20088;-75
2022/07/29 03:40:51;;;;;;;1.70;1.15;;;;;;;;;;5054084;28;20495;-75
2022/07/29 03:43:17;;;;;;;2.47;1.50;;;;;;;;;;5054339;28;20029;-75
2022/07/29 03:45:45;;;;;;;1.80;1.30;;;;;;;;;;5053227;28;20086;-75
2022/07/29 03:48:12;;;;;;;2.40;1.30;;;;;;;;;;5054222;28;20017;-75
2022/07/29 03:50:38;;;;;;;1.45;1.08;;;;;;;;;;5054133;28;20055;-75
2022/07/29 03:53:03;;;;;;;1.45;1.25;;;;;;;;;;5054309;28;20064;-75
2022/07/29 03:55:31;;;;;;;1.27;1.17;;;;;;;;;;5054217;28;20032;-75
2022/07/29 03:57:57;;;;;;;2.63;1.40;;;;;;;;;;5053777;28;20039;-75
2022/07/29 04:00:24;;;;;;;2.25;1.20;;;;;;;;;;5053218;28;20464;-75
2022/07/29 04:02:49;;;;;;;1.42;1.25;;;;;;;;;;5053152;28;20054;-76
2022/07/29 04:05:15;;;;;;;1.85;1.30;;;;;;;;;;5053129;28;20025;-76
2022/07/29 04:07:43;;;;;;;2.97;1.13;;;;;;;;;;5051994;28;20063;-76
2022/07/29 04:10:10;;;;;;;2.40;1.30;;;;;;;;;;5053152;28;20027;-72
2022/07/29 04:12:35;;;;;;;1.40;1.30;;;;;;;;;;5054017;28;20025;-76
2022/07/29 04:15:02;;;;;;;1.50;1.40;;;;;;;;;;5054307;28;20036;-76
2022/07/29 04:17:27;;;;;;;1.55;1.45;;;;;;;;;;5052719;28;20442;-76
2022/07/29 04:19:53;;;;;;;3.10;1.30;;;;;;;;;;5053422;28;20032;-76
2022/07/29 04:22:18;;;;;;;3.22;1.35;;;;;;;;;;5053758;28;20104;-76
2022/07/29 04:24:44;;;;;;;1.35;1.25;;;;;;;;;;5054111;28;20025;-77
2022/07/29 04:27:09;;;;;;;2.28;1.20;;;;;;;;;;5054132;28;20025;-76
2022/07/29 04:29:35;;;;;;;2.13;1.30;;;;;;;;;;5052426;28;20060;-77
2022/07/29 04:32:00;;;;;;;1.98;1.30;;;;;;;;;;5053740;28;20028;-77
2022/07/29 04:34:26;;;;;;;1.70;1.05;;;;;;;;;;5052397;28;20032;-77
2022/07/29 04:36:51;;;;;;;2.85;1.23;;;;;;;;;;5051951;28;20017;-77
2022/07/29 04:39:18;;;;;;;3.47;1.30;;;;;;;;;;5052098;28;20028;-77
2022/07/29 04:41:43;;;;;;;2.92;1.85;;;;;;;;;;5052402;28;20032;-77
2022/07/29 04:44:09;;;;;;;3.08;1.35;;;;;;;;;;5052333;28;20041;-77
2022/07/29 04:46:35;;;;;;;2.35;1.70;;;;;;;;;;5052266;28;20021;-77
2022/07/29 04:49:01;;;;;;;3.10;1.75;;;;;;;;;;5052767;28;20036;-77
2022/07/29 04:51:26;;;;;;;4.43;2.33;;;;;;;;;;5053476;28;20045;-77
2022/07/29 04:53:52;;;;;;;2.53;1.73;;;;;;;;;;5054024;28;20114;-77
2022/07/29 04:56:17;;;;;;;2.50;1.50;;;;;;;;;;5052588;28;20060;-77
2022/07/29 04:58:42;;;;;;;3.42;1.50;;;;;;;;;;5053664;28;20083;-77
2022/07/29 05:01:08;;;;;;;1.33;1.23;;;;;;;;;;5052197;28;20045;-77
2022/07/29 05:03:33;;;;;;;2.25;1.15;;;;;;;;;;5053304;28;20029;-77
2022/07/29 05:05:58;;;;;;;1.50;1.30;;;;;;;;;;5053660;28;20020;-77
2022/07/29 05:08:24;;;;;;;2.03;1.10;;;;;;;;;;5053351;28;20361;-77
2022/07/29 05:10:49;;;;;;;1.92;1.40;;;;;;;;;;5053605;28;20074;-77
2022/07/29 05:13:15;;;;;;;4.28;1.40;;;;;;;;;;5053548;28;20434;-77
2022/07/29 05:15:41;;;;;;;2.03;1.42;;;;;;;;;;5053287;28;20032;-77
2022/07/29 05:18:06;;;;;;;1.63;1.20;;;;;;;;;;5053532;28;20383;-77
2022/07/29 05:20:32;;;;;;;2.40;1.30;;;;;;;;;;5053239;28;20017;-77
2022/07/29 05:22:58;;;;;;;1.67;1.30;;;;;;;;;;5053173;28;20119;-77
2022/07/29 05:25:24;;;;;;;3.58;1.50;;;;;;;;;;5053189;28;20056;-77
2022/07/29 05:27:50;;;;;;;6.28;1.40;;;;;;;;;;5053451;28;20021;-77
2022/07/29 05:30:15;;;;;;;2.85;1.35;;;;;;;;;;5053427;28;20023;-77
2022/07/29 05:32:41;;;;;;;2.03;1.08;;;;;;;;;;5053344;28;20063;-77
2022/07/29 05:35:06;;;;;;;1.77;1.00;;;;;;;;;;5053351;28;20057;-77
2022/07/29 05:37:32;;;;;;;3.15;1.35;;;;;;;;;;5053330;28;20036;-77
2022/07/29 05:39:58;;;;;;;1.45;1.30;;;;;;;;;;5053360;28;20021;-77
2022/07/29 05:42:24;;;;;;;1.25;1.15;;;;;;;;;;5054633;28;20035;-77
2022/07/29 05:44:49;;;;;;;3.97;1.20;;;;;;;;;;5055616;28;20021;-77
2022/07/29 05:47:14;;;;;;;6.07;1.20;;;;;;;;;;5055915;28;20448;-77
2022/07/29 05:49:40;;;;;;;2.10;1.02;;;;;;;;;;5056316;28;20088;-77
2022/07/29 05:52:05;;;;;;;3.33;1.10;;;;;;;;;;5056457;28;20049;-77
2022/07/29 05:54:31;;;;;;;2.35;1.20;;;;;;;;;;5056607;28;20490;-77
2022/07/29 05:56:56;;;;;;;3.15;1.50;;;;;;;;;;5056865;28;20025;-77
2022/07/29 05:59:21;;;;;;;4.38;1.23;;;;;;;;;;5055307;28;20017;-77
2022/07/29 06:01:47;;;;;;;2.25;1.08;;;;;;;;;;5056509;28;20032;-77
2022/07/29 06:04:12;;;;;;;1.42;1.33;;;;;;;;;;5056695;28;20025;-77
2022/07/29 06:06:38;;;;;;;1.67;1.13;;;;;;;;;;5056688;28;20117;-77
2022/07/29 06:09:03;;;;;;;4.43;1.45;;;;;;;;;;5056367;28;20021;-77
2022/07/29 06:11:28;;;;;;;2.08;1.30;;;;;;;;;;5055198;28;20033;-77
2022/07/29 06:13:54;;;;;;;1.50;1.27;;;;;;;;;;5055336;28;20025;-77
2022/07/29 06:16:19;;;;;;;1.40;1.15;;;;;;;;;;5056222;28;20047;-78
2022/07/29 06:18:44;;;;;;;3.42;1.40;;;;;;;;;;5056763;28;20109;-77
2022/07/29 06:21:10;;;;;;;2.47;1.17;;;;;;;;;;5056163;28;20526;-77
2022/07/29 06:23:37;;;;;;;1.60;1.20;;;;;;;;;;5056037;28;20017;-77
2022/07/29 06:26:02;;;;;;;4.07;1.40;;;;;;;;;;5056051;28;20029;-77
2022/07/29 06:28:28;;;;;;;3.85;1.27;;;;;;;;;;5055190;28;20027;-77
2022/07/29 06:30:53;;;;;;;2.78;1.40;;;;;;;;;;5054835;28;20033;-78
2022/07/29 06:33:18;;;;;;;1.52;1.30;;;;;;;;;;5038108;28;20112;-77
2022/07/29 06:35:46;;;;;;;2.58;1.25;;;;;;;;;;5056164;28;20120;-77
2022/07/29 06:38:12;;;;;;;3.35;1.30;;;;;;;;;;5055850;28;20025;-77
2022/07/29 06:43:24;;;;;;;1.50;1.40;;;;;;;;;;5055953;28;20029;-77
2022/07/29 06:45:50;;;;;;;2.70;1.70;;;;;;;;;;5055956;28;20028;-77
2022/07/29 06:48:15;;;;;;;1.50;1.35;;;;;;;;;;5055586;28;20021;-77
2022/07/29 06:50:40;;;;;;;1.50;1.38;;;;;;;;;;5055681;28;20017;-77
2022/07/29 06:53:06;;;;;;;3.28;1.50;;;;;;;;;;5055042;28;20037;-77
2022/07/29 06:55:32;;;;;;;5.13;2.15;;;;;;;;;;5054353;28;20044;-77
2022/07/29 06:57:57;;;;;;;3.53;1.50;;;;;;;;;;5054585;28;20090;-78
2022/07/29 07:00:22;;;;;;;3.03;1.75;;;;;;;;;;5055948;28;20070;-78
2022/07/29 07:02:48;;;;;;;2.08;1.27;;;;;;;;;;5055267;28;20029;-77
2022/07/29 07:05:13;;;;;;;2.45;1.83;;;;;;;;;;5055570;28;20027;-77
2022/07/29 07:07:39;;;;;;;4.20;1.63;;;;;;;;;;5055293;28;20481;-77
2022/07/29 07:10:05;;;;;;;3.05;2.75;;;;;;;;;;5055262;28;20024;-77
2022/07/29 07:12:30;;;;;;;2.95;2.00;;;;;;;;;;5055453;28;20139;-77
2022/07/29 07:14:56;;;;;;;2.30;1.50;;;;;;;;;;5055723;28;20021;-77
2022/07/29 07:17:21;;;;;;;2.63;1.40;;;;;;;;;;5053794;28;20029;-77
2022/07/29 07:19:46;;;;;;;1.63;1.50;;;;;;;;;;5054111;28;20025;-77
2022/07/29 07:22:12;;;;;;;3.30;1.45;;;;;;;;;;5053620;28;20388;-77
2022/07/29 07:24:37;;;;;;;2.83;1.48;;;;;;;;;;5054962;28;20013;-77
2022/07/29 07:27:03;;;;;;;1.60;1.50;;;;;;;;;;5054862;28;20391;-77
2022/07/29 07:29:28;;;;;;;2.03;1.10;;;;;;;;;;5055091;28;20174;-77
2022/07/29 07:31:54;;;;;;;1.25;1.25;;;;;;;;;;5053594;28;20040;-77
2022/07/29 07:34:19;;;;;;;4.03;1.60;;;;;;;;;;5036880;28;20039;-78
2022/07/29 07:36:44;;;;;;;3.22;1.50;;;;;;;;;;5054668;28;20049;-77
2022/07/29 07:39:10;;;;;;;1.77;1.20;;;;;;;;;;5054629;28;20016;-78
2022/07/29 07:41:35;;;;;;;4.68;3.10;;;;;;;;;;5055167;28;20032;-77
2022/07/29 07:44:00;;;;;;;2.60;1.40;;;;;;;;;;5054544;28;20380;-77
2022/07/29 07:46:26;;;;;;;4.55;1.50;;;;;;;;;;5054527;28;20494;-77
2022/07/29 07:48:52;;;;;;;3.75;1.42;;;;;;;;;;5054521;28;20029;-78
2022/07/29 07:51:17;;;;;;;4.28;2.70;;;;;;;;;;5054474;28;20246;-78
2022/07/29 07:53:44;;;;;;;3.50;2.20;;;;;;;;;;5054929;28;20032;-78
2022/07/29 07:56:10;;;;;;;3.58;2.20;;;;;;;;;;5054894;28;20536;-78
2022/07/29 07:58:36;;;;;;;1.83;1.48;;;;;;;;;;5054385;28;20110;-77
2022/07/29 08:01:02;;;;;;;3.05;1.60;;;;;;;;;;5054245;28;20039;-77
2022/07/29 08:03:27;;;;;;;2.47;1.60;;;;;;;;;;5053741;28;20024;-78
2022/07/29 08:05:54;;;;;;;1.85;1.40;;;;;;;;;;5054621;28;20025;-78
2022/07/29 08:08:19;;;;;;;3.67;1.73;;;;;;;;;;5053000;28;20112;-77
2022/07/29 08:10:55;;;;;;;1.80;1.70;;;;;;;;;;5054353;28;20056;-77
2022/07/29 08:13:21;;;;;;;1.58;1.45;;;;;;;;;;5036210;28;20555;-78
2022/07/29 08:15:47;;;;;;;2.90;1.95;;;;;;;;;;5053996;28;20105;-77
2022/07/29 08:18:13;;;;;;;3.22;1.45;;;;;;;;;;5053887;28;20025;-78
2022/07/29 08:20:39;;;;;;;3.67;1.48;;;;;;;;;;5054247;28;20465;-77
2022/07/29 08:23:06;;;;;;;1.60;1.50;;;;;;;;;;5054125;28;20079;-78
2022/07/29 08:25:32;;;;;;;4.32;1.52;;;;;;;;;;5052722;28;20109;-78
2022/07/29 08:27:57;;;;;;;2.47;1.60;;;;;;;;;;5052983;28;20079;-78
2022/07/29 08:30:22;;;;;;;4.82;1.60;;;;;;;;;;5054341;28;20013;-77
2022/07/29 08:32:49;;;;;;;3.75;1.77;;;;;;;;;;5053736;28;20036;-78
2022/07/29 08:35:14;;;;;;;3.35;1.70;;;;;;;;;;5054302;28;20021;-77
2022/07/29 08:37:40;;;;;;;2.22;2.00;;;;;;;;;;5053672;28;20099;-77
2022/07/29 08:40:06;;;;;;;6.97;1.50;;;;;;;;;;5053662;28;20024;-77
2022/07/29 08:42:31;;;;;;;1.90;1.70;;;;;;;;;;5035747;28;20036;-78
2022/07/29 08:44:57;;;;;;;2.28;1.70;;;;;;;;;;5053841;28;20021;-78
2022/07/29 08:47:23;;;;;;;6.80;1.98;;;;;;;;;;5053559;28;20151;-78
2022/07/29 08:49:48;;;;;;;2.85;1.60;;;;;;;;;;5053877;28;20070;-78
2022/07/29 08:52:14;;;;;;;1.63;1.50;;;;;;;;;;5053296;28;20129;-77
2022/07/29 08:54:42;;;;;;;4.18;1.88;;;;;;;;;;5053525;28;20040;-77
2022/07/29 08:57:09;;;;;;;2.63;1.60;;;;;;;;;;5053805;28;20036;-77
2022/07/29 08:59:34;;;;;;;1.80;1.70;;;;;;;;;;5052192;28;20024;-77
2022/07/29 09:02:00;;;;;;;5.00;1.33;;;;;;;;;;5053412;28;20037;-77
2022/07/29 09:04:29;;;;;;;2.80;1.73;;;;;;;;;;5053639;28;20021;-78
2022/07/29 09:06:56;;;;;;;3.15;1.92;;;;;;;;;;5053433;28;20032;-78
2022/07/29 09:09:22;;;;;;;3.80;2.10;;;;;;;;;;5053353;28;20009;-77
2022/07/29 09:11:48;;;;;;;2.75;2.20;;;;;;;;;;5053588;28;20476;-77
2022/07/29 09:14:14;;;;;;;2.13;2.00;;;;;;;;;;5052164;28;20032;-78
2022/07/29 09:16:50;;;;;;;3.78;1.98;;;;;;;;;;5056865;28;20057;-77
2022/07/29 09:19:26;;;;;;;4.00;2.08;;;;;;;;;;5057876;28;20025;-78
2022/07/29 09:21:58;;;;;;;4.32;2.10;;;;;;;;;;5057670;28;20041;-77
2022/07/29 09:24:37;;;;;;;3.15;1.85;;;;;;;;;;5056301;28;20047;-78
2022/07/29 09:27:07;;;;;;;3.30;2.10;;;;;;;;;;5057727;28;20095;-78
2022/07/29 09:29:33;;;;;;;2.55;1.98;;;;;;;;;;5055899;28;20025;-78
2022/07/29 09:31:58;;;;;;;2.03;1.67;;;;;;;;;;5057118;28;20021;-78
2022/07/29 09:34:25;;;;;;;1.98;1.70;;;;;;;;;;5056172;28;20083;-77
2022/07/29 09:36:51;;;;;;;3.28;2.00;;;;;;;;;;5055735;28;20021;-77
2022/07/29 09:39:26;;;;;;;2.95;2.30;;;;;;;;;;5056858;28;20122;-78
2022/07/29 09:41:53;;;;;;;4.88;2.40;;;;;;;;;;5057174;28;20029;-78
2022/07/29 09:44:18;;;;;;;4.32;1.85;;;;;;;;;;5057102;28;20105;-77
2022/07/29 09:46:58;;;;;;;3.05;1.80;;;;;;;;;;5056823;28;20056;-77
2022/07/29 09:49:24;;;;;;;3.50;1.88;;;;;;;;;;5057066;28;20471;-77
2022/07/29 09:52:06;;;;;;;2.80;1.88;;;;;;;;;;5055355;28;20041;-77
2022/07/29 09:54:38;;;;;;;2.88;2.40;;;;;;;;;;5057183;28;20037;-78
2022/07/29 09:57:09;;;;;;;2.35;2.00;;;;;;;;;;5056890;28;20029;-78
2022/07/29 09:59:34;;;;;;;2.47;2.00;;;;;;;;;;5055702;28;20025;-77
2022/07/29 10:02:00;;;;;;;2.45;2.10;;;;;;;;;;5055238;28;20028;-77
2022/07/29 10:04:40;;;;;;;2.75;2.28;;;;;;;;;;5056508;28;20087;-77
2022/07/29 10:07:05;;;;;;;2.63;2.42;;;;;;;;;;5055696;28;20067;-77
2022/07/29 10:09:31;;;;;;;2.88;1.90;;;;;;;;;;5055353;28;20017;-77
2022/07/29 10:12:15;;;;;;;4.63;2.20;;;;;;;;;;5055415;28;20344;-77
2022/07/29 10:14:41;;;;;;;2.70;2.40;;;;;;;;;;5054099;28;20529;-77
2022/07/29 10:17:08;;;;;;;3.78;2.55;;;;;;;;;;5055249;28;20021;-77
2022/07/29 10:19:34;;;;;;;2.90;2.20;;;;;;;;;;5055202;28;20017;-77
2022/07/29 10:22:01;;;;;;;3.47;1.80;;;;;;;;;;5053999;28;20096;-77
2022/07/29 10:24:27;;;;;;;3.47;2.22;;;;;;;;;;5055010;28;20036;-77
2022/07/29 10:26:54;;;;;;;2.42;2.22;;;;;;;;;;5052945;28;20029;-77
2022/07/29 10:29:19;;;;;;;4.15;2.47;;;;;;;;;;5053844;28;20124;-77
2022/07/29 10:32:08;;;;;;;2.78;2.40;;;;;;;;;;5048511;28;20439;-77
2022/07/29 10:34:33;;;;;;;4.50;2.53;;;;;;;;;;5014036;28;20084;-77
2022/07/29 10:37:28;;;;;;;5.22;2.30;;;;;;;;;;5051185;28;20119;-77
2022/07/29 10:39:59;;;;;;;3.15;2.38;;;;;;;;;;4962936;28;20035;-77
2022/07/29 10:42:25;;;;;;;3.13;2.60;;;;;;;;;;5049496;28;20025;-77
2022/07/29 10:44:52;;;;;;;2.92;2.70;;;;;;;;;;5049945;28;20059;-77
2022/07/29 10:47:20;;;;;;;4.60;2.58;;;;;;;;;;5051965;28;20481;-77
2022/07/29 10:49:56;;;;;;;5.75;2.45;;;;;;;;;;5051578;28;20032;-77
2022/07/29 10:52:24;;;;;;;5.60;2.67;;;;;;;;;;5051632;28;20048;-77
2022/07/29 10:54:53;;;;;;;4.13;2.83;;;;;;;;;;5051830;28;20464;-77
2022/07/29 10:57:25;;;;;;;2.42;2.33;;;;;;;;;;5051594;28;20021;-77
2022/07/29 11:00:08;;;;;;;4.10;2.40;;;;;;;;;;5050410;28;20104;-77
2022/07/29 11:02:34;;;;;;;3.40;2.20;;;;;;;;;;5051631;28;20473;-77
2022/07/29 11:05:03;;;;;;;3.10;2.70;;;;;;;;;;5033737;28;20036;-77
2022/07/29 11:07:29;;;;;;;3.70;2.58;;;;;;;;;;5051985;28;20029;-77
2022/07/29 11:10:13;;;;;;;2.30;2.10;;;;;;;;;;5051251;28;20377;-77
2022/07/29 11:12:38;;;;;;;2.28;1.65;;;;;;;;;;5049982;28;20045;-77
2022/07/29 11:15:08;;;;;;;4.53;2.65;;;;;;;;;;5051807;28;20028;-77
2022/07/29 11:17:53;;;;;;;2.45;2.13;;;;;;;;;;5051262;28;20167;-77
2022/07/29 11:20:40;;;;;;;2.90;2.60;;;;;;;;;;5049283;28;20082;-77
2022/07/29 11:23:24;;;;;;;5.43;2.80;;;;;;;;;;5049819;28;20036;-77
2022/07/29 11:26:13;;;;;;;2.78;2.25;;;;;;;;;;5051537;28;20037;-77
2022/07/29 11:29:17;;;;;;;3.38;2.20;;;;;;;;;;5036906;28;20040;-77
2022/07/29 11:31:44;;;;;;;3.22;2.20;;;;;;;;;;4969506;28;20550;-77
2022/07/29 11:34:22;;;;;;;4.13;2.30;;;;;;;;;;4969728;28;20035;-77
2022/07/29 11:37:06;;;;;;;3.00;2.30;;;;;;;;;;5014479;28;20080;-77
2022/07/29 11:39:31;;;;;;;3.53;2.35;;;;;;;;;;5050615;28;20029;-77
2022/07/29 11:42:15;;;;;;;2.40;2.20;;;;;;;;;;5050859;28;20468;-77
2022/07/29 11:45:00;;;;;;;2.28;2.17;;;;;;;;;;5050827;28;20488;-77
2022/07/29 11:47:27;;;;;;;3.67;2.30;;;;;;;;;;5050752;28;20079;-77
2022/07/29 11:49:53;;;;;;;3.60;2.28;;;;;;;;;;5032626;28;20029;-77
2022/07/29 11:52:18;;;;;;;3.67;2.35;;;;;;;;;;5050493;28;20095;-77
2022/07/29 11:54:46;;;;;;;5.90;2.58;;;;;;;;;;5051447;28;20041;-77
2022/07/29 11:57:12;;;;;;;3.15;2.03;;;;;;;;;;5053319;28;20040;-76
2022/07/29 11:59:44;;;;;;;2.88;2.67;;;;;;;;;;5053381;28;20384;-77
2022/07/29 12:02:10;;;;;;;4.82;2.58;;;;;;;;;;5052692;28;20461;-77
2022/07/29 12:04:48;;;;;;;2.97;2.20;;;;;;;;;;5051957;28;20024;-77
2022/07/29 12:07:13;;;;;;;6.07;2.38;;;;;;;;;;5053593;28;20032;-77
2022/07/29 12:09:39;;;;;;;5.72;2.70;;;;;;;;;;5053235;28;20021;-77
2022/07/29 12:12:04;;;;;;;3.97;2.60;;;;;;;;;;5053655;28;20037;-77
2022/07/29 12:14:31;;;;;;;2.33;2.13;;;;;;;;;;5052720;28;20108;-77
2022/07/29 12:16:57;;;;;;;6.15;2.50;;;;;;;;;;5050299;28;20476;-77
2022/07/29 12:19:23;;;;;;;4.35;2.20;;;;;;;;;;5050039;28;20035;-77
2022/07/29 12:21:49;;;;;;;3.25;2.70;;;;;;;;;;5050361;28;20246;-77
2022/07/29 12:24:15;;;;;;;5.90;2.60;;;;;;;;;;5050190;28;20396;-77
2022/07/29 12:26:50;;;;;;;2.95;2.67;;;;;;;;;;5050514;28;20031;-77
2022/07/29 12:29:17;;;;;;;2.40;2.30;;;;;;;;;;5051093;28;20033;-76
2022/07/29 12:31:42;;;;;;;2.65;2.42;;;;;;;;;;5050562;28;20021;-76
2022/07/29 12:34:08;;;;;;;3.05;2.35;;;;;;;;;;5050192;28;20392;-75
2022/07/29 12:36:34;;;;;;;5.07;2.40;;;;;;;;;;5050519;28;20021;-75
2022/07/29 12:38:59;;;;;;;2.33;2.20;;;;;;;;;;5049810;28;20435;-76
2022/07/29 12:41:24;;;;;;;2.65;2.20;;;;;;;;;;5049860;28;20028;-78
2022/07/29 12:43:54;;;;;;;3.47;2.30;;;;;;;;;;5048471;28;20033;-78
2022/07/29 12:46:20;;;;;;;2.80;2.28;;;;;;;;;;5049801;28;20432;-78
2022/07/29 12:48:49;;;;;;;5.45;2.60;;;;;;;;;;5050072;28;20017;-78
2022/07/29 12:51:16;;;;;;;5.70;2.33;;;;;;;;;;5047444;28;20041;-78
2022/07/29 12:54:01;;;;;;;2.70;2.50;;;;;;;;;;5048332;28;20041;-78
2022/07/29 12:56:26;;;;;;;2.35;2.15;;;;;;;;;;5048255;28;20412;-78
2022/07/29 12:58:52;;;;;;;2.55;2.30;;;;;;;;;;5049746;28;20025;-78
2022/07/29 13:01:19;;;;;;;5.57;2.53;;;;;;;;;;5048230;28;20036;-78
2022/07/29 13:03:45;;;;;;;2.40;2.20;;;;;;;;;;5049477;28;20025;-75
2022/07/29 13:06:29;;;;;;;4.30;2.42;;;;;;;;;;5049606;28;20032;-76
2022/07/29 13:09:02;;;;;;;4.63;2.38;;;;;;;;;;5049701;28;20063;-75
2022/07/29 13:11:28;;;;;;;2.70;2.50;;;;;;;;;;5049332;28;20040;-75
2022/07/29 13:13:53;;;;;;;5.85;2.67;;;;;;;;;;5049770;28;20040;-76
2022/07/29 13:16:19;;;;;;;4.50;2.90;;;;;;;;;;5049524;28;20067;-75
2022/07/29 13:18:44;;;;;;;4.13;2.90;;;;;;;;;;5049436;28;20021;-75
2022/07/29 13:21:14;;;;;;;3.85;2.42;;;;;;;;;;5049017;28;20083;-75
2022/07/29 13:23:40;;;;;;;2.60;2.17;;;;;;;;;;5049445;28;20123;-74
2022/07/29 13:26:09;;;;;;;2.97;2.60;;;;;;;;;;5049835;28;20104;-74
2022/07/29 13:28:35;;;;;;;2.65;2.50;;;;;;;;;;5049311;28;20082;-75
2022/07/29 13:31:00;;;;;;;3.30;2.30;;;;;;;;;;5049545;28;20033;-75
2022/07/29 13:33:26;;;;;;;3.45;2.67;;;;;;;;;;5049869;28;20095;-75
2022/07/29 13:35:52;;;;;;;3.92;2.22;;;;;;;;;;5049209;28;20056;-75
2022/07/29 13:38:17;;;;;;;3.92;2.60;;;;;;;;;;5049643;28;20468;-75
2022/07/29 13:40:43;;;;;;;2.78;2.25;;;;;;;;;;5030944;28;20540;-75
2022/07/29 13:43:09;;;;;;;2.20;2.10;;;;;;;;;;5049056;28;20028;-75
2022/07/29 13:45:35;;;;;;;2.83;2.63;;;;;;;;;;5047801;28;20104;-75
2022/07/29 13:48:01;;;;;;;2.53;2.33;;;;;;;;;;5049170;28;20102;-75
2022/07/29 13:50:26;;;;;;;4.38;2.30;;;;;;;;;;5048695;28;20540;-75
2022/07/29 13:52:53;;;;;;;3.85;2.80;;;;;;;;;;5049128;28;20061;-75
2022/07/29 13:55:18;;;;;;;3.08;2.80;;;;;;;;;;5031635;28;20415;-75
2022/07/29 13:57:44;;;;;;;4.45;2.90;;;;;;;;;;5047945;28;20044;-75
2022/07/29 14:00:10;;;;;;;5.68;2.75;;;;;;;;;;5031128;28;20025;-75
2022/07/29 14:02:36;;;;;;;2.50;2.40;;;;;;;;;;5048994;28;20037;-75
2022/07/29 14:05:01;;;;;;;3.35;2.70;;;;;;;;;;5052737;28;20385;-75
2022/07/29 14:07:26;;;;;;;5.05;2.20;;;;;;;;;;5052632;28;20393;-75
2022/07/29 14:09:52;;;;;;;2.70;2.50;;;;;;;;;;5052389;28;20068;-75
2022/07/29 14:12:17;;;;;;;2.80;2.63;;;;;;;;;;5052682;28;20060;-75
2022/07/29 14:14:42;;;;;;;5.82;2.30;;;;;;;;;;5051194;28;20017;-75
2022/07/29 14:17:08;;;;;;;4.10;2.15;;;;;;;;;;5051024;28;20044;-75
2022/07/29 14:19:35;;;;;;;3.65;2.28;;;;;;;;;;5052542;28;20099;-75
2022/07/29 14:22:02;;;;;;;5.97;2.67;;;;;;;;;;5052485;28;20566;-75
2022/07/29 14:24:28;;;;;;;2.88;2.65;;;;;;;;;;5052514;28;20048;-75
2022/07/29 14:26:53;;;;;;;3.67;2.42;;;;;;;;;;5051080;28;20037;-75
2022/07/29 14:29:18;;;;;;;4.82;2.78;;;;;;;;;;5052173;28;20096;-75
2022/07/29 14:31:44;;;;;;;4.82;2.80;;;;;;;;;;5050561;28;20143;-75
2022/07/29 14:34:09;;;;;;;4.00;2.60;;;;;;;;;;5052552;28;20578;-75
2022/07/29 14:36:35;;;;;;;2.72;2.40;;;;;;;;;;5052229;28;20029;-75
2022/07/29 14:39:00;;;;;;;4.35;2.50;;;;;;;;;;5052105;28;20079;-75
2022/07/29 14:41:27;;;;;;;3.67;2.70;;;;;;;;;;5050600;28;20056;-75
2022/07/29 14:43:53;;;;;;;4.85;2.50;;;;;;;;;;5050608;28;20483;-75
2022/07/29 14:46:19;;;;;;;2.90;2.70;;;;;;;;;;5050281;28;20029;-75
2022/07/29 14:48:44;;;;;;;2.97;2.60;;;;;;;;;;5052066;28;20059;-75
2022/07/29 14:51:10;;;;;;;4.60;2.67;;;;;;;;;;5051549;28;20398;-75